KCQB

Details ICAO KCQB
Name CHANDLER RGNL
Region United States
Timezone America/Chicago (UTC-6.0)
Plans Departing 1
Arriving 1
Stats Elevation 984 ft / 300 m (AMSL)
Location 35.724082° -96.820278°
Runways 1
Magnetic Variation 3.279° E
Sunrise 2017-12-13 13:30:05 UTC / 2017-12-13 07:30:05 Local
Sunset 2017-12-13 23:15:58 UTC / 2017-12-13 17:15:58 Local
Advertisement - Login to hide

Runways

ID Width Length Bearing (true) Bearing (mag) Surface Threshold Offset Overrun Length
17 60 ft / 18 m 4,009 ft / 1,222 m 180.24° 176.96° Asphalt 0 ft / 0 m 0 ft / 0 m
35 60 ft / 18 m 4,009 ft / 1,222 m 0.24° 356.96° Asphalt 0 ft / 0 m 0 ft / 0 m

Map

Weather


0- 5 10 15 20 25 30 35+ Temperature / ° C

Clouds and Precipitation
Forecast for 2017-12-14 06:00 UTC. Updated an hour ago

Ground ~20,000 ft ~40,000 ft Winds

METAR

KCQB 140435Z AUTO 36006KT 10SM CLR 06/M05 A2996 RMK AO2 T00621045

TAF

Not found

Frequencies

Recorded 119.27 MHz AWOS 3
Unicom 122.90 MHz CTAF/UNICOM
Warning: Do not use this data for real-world aviation or navigation. No guarantee of current accuracy is given.